Time;durP1;ratioP1;P1;durP2;ratioP2;P2;SDS_P1;SDS_P2;PMS_P1;PMS_P2;Temp;Humidity;BMP_temperature;BMP_pressure;BME280_temperature;BME280_humidity;BME280_pressure;Samples;Min_cycle;Max_cycle;Signal;HPM_P1;HPM_P2
2023/10/21 00:02:18;;;;;;;2.15;1.90;;;17.90;69.30;;;;;;5062453;28;20028;-67
2023/10/21 00:04:43;;;;;;;2.25;2.05;;;17.90;69.40;;;;;;5063478;28;20090;-67
2023/10/21 00:07:09;;;;;;;2.20;1.98;;;17.90;69.30;;;;;;5061666;28;20105;-65
2023/10/21 00:09:34;;;;;;;2.40;2.20;;;17.90;69.40;;;;;;5057898;28;20036;-65
2023/10/21 00:12:00;;;;;;;2.20;2.00;;;17.90;69.50;;;;;;5066136;28;20028;-67
2023/10/21 00:14:25;;;;;;;1.88;1.75;;;17.90;69.40;;;;;;5058273;28;20210;-66
2023/10/21 00:16:52;;;;;;;2.90;2.10;;;17.90;69.40;;;;;;5055071;28;20174;-67
2023/10/21 00:19:17;;;;;;;2.40;2.20;;;17.90;69.40;;;;;;5061524;28;20028;-68
2023/10/21 00:21:43;;;;;;;2.40;2.20;;;17.90;69.40;;;;;;5058285;28;20024;-67
2023/10/21 00:24:09;;;;;;;2.67;2.25;;;17.90;69.50;;;;;;5064931;28;20061;-67
2023/10/21 00:26:48;;;;;;;1.95;1.77;;;17.90;69.50;;;;;;5062551;28;20098;-67
2023/10/21 00:29:14;;;;;;;2.08;1.88;;;17.90;69.50;;;;;;5060867;28;20145;-68
2023/10/21 00:31:41;;;;;;;2.03;1.77;;;17.90;69.40;;;;;;5062266;28;20056;-67
2023/10/21 00:34:06;;;;;;;2.15;1.90;;;17.90;69.30;;;;;;5060313;28;20032;-67
2023/10/21 00:36:32;;;;;;;2.40;2.20;;;17.90;69.50;;;;;;5061037;28;20029;-67
2023/10/21 00:38:57;;;;;;;2.38;1.90;;;17.90;69.30;;;;;;5059209;28;20848;-66
2023/10/21 00:41:23;;;;;;;1.98;1.77;;;17.90;69.40;;;;;;5060068;28;20104;-66
2023/10/21 00:43:48;;;;;;;2.22;2.03;;;17.90;69.40;;;;;;5062605;28;20035;-66
2023/10/21 00:46:18;;;;;;;2.20;1.92;;;17.90;69.30;;;;;;5063254;28;20430;-65
2023/10/21 00:48:48;;;;;;;1.85;1.75;;;17.90;69.50;;;;;;5059290;28;20522;-67
2023/10/21 00:51:17;;;;;;;2.22;2.03;;;17.90;69.30;;;;;;5060818;28;20025;-65
2023/10/21 00:53:43;;;;;;;2.60;1.95;;;17.90;69.40;;;;;;5063757;28;20021;-67
2023/10/21 00:56:08;;;;;;;1.90;1.75;;;17.90;69.40;;;;;;5066215;28;20478;-68
2023/10/21 00:58:35;;;;;;;5.55;3.42;;;17.90;69.30;;;;;;5055831;28;20024;-66
2023/10/21 01:01:08;;;;;;;3.20;1.80;;;17.90;70.10;;;;;;5062262;28;20031;-67
2023/10/21 01:03:36;;;;;;;1.70;1.50;;;17.90;69.50;;;;;;5056575;28;20033;-67
2023/10/21 01:06:02;;;;;;;2.10;1.60;;;17.90;69.30;;;;;;5063148;28;20097;-66
2023/10/21 01:08:28;;;;;;;1.98;1.77;;;17.90;69.40;;;;;;5059070;28;20406;-66
2023/10/21 01:10:53;;;;;;;2.30;1.65;;;17.90;69.30;;;;;;5061619;28;20032;-67
2023/10/21 01:13:19;;;;;;;2.03;1.83;;;17.90;69.40;;;;;;5065354;28;20032;-67
2023/10/21 01:15:45;;;;;;;1.88;1.67;;;17.90;69.30;;;;;;5058970;28;20441;-66
2023/10/21 01:18:11;;;;;;;1.75;1.60;;;17.90;69.30;;;;;;5061572;28;20325;-68
2023/10/21 01:20:41;;;;;;;2.20;1.88;;;17.80;69.40;;;;;;5058726;28;20059;-67
2023/10/21 01:23:07;;;;;;;2.30;1.70;;;17.90;69.40;;;;;;5064734;28;20078;-66
2023/10/21 01:25:33;;;;;;;2.22;1.70;;;17.90;69.30;;;;;;5063133;28;20029;-67
2023/10/21 01:27:59;;;;;;;1.80;1.70;;;17.90;69.30;;;;;;5063902;28;20031;-66
2023/10/21 01:30:25;;;;;;;2.50;2.10;;;17.90;69.30;;;;;;5059189;28;20044;-67
2023/10/21 01:32:51;;;;;;;2.08;1.70;;;17.90;69.30;;;;;;5056594;28;20037;-66
2023/10/21 01:35:17;;;;;;;2.17;1.98;;;17.90;69.50;;;;;;5065027;28;20070;-67
2023/10/21 01:37:45;;;;;;;1.50;1.40;;;17.90;69.30;;;;;;5063088;28;20029;-67
2023/10/21 01:40:11;;;;;;;1.90;1.70;;;17.90;69.50;;;;;;5061244;28;20082;-66
2023/10/21 01:42:41;;;;;;;3.35;1.70;;;17.90;69.40;;;;;;5063732;28;20031;-66
2023/10/21 01:45:07;;;;;;;3.20;1.63;;;17.90;69.40;;;;;;5068059;28;20081;-67
2023/10/21 01:47:35;;;;;;;2.83;1.60;;;17.90;69.30;;;;;;5064343;28;20384;-66
2023/10/21 01:50:02;;;;;;;1.70;1.60;;;17.90;69.30;;;;;;5066507;28;20032;-67
2023/10/21 01:52:28;;;;;;;1.60;1.50;;;17.90;69.50;;;;;;5067258;28;20133;-67
2023/10/21 01:54:54;;;;;;;1.70;1.60;;;17.90;69.30;;;;;;5067069;28;20028;-66
2023/10/21 01:57:19;;;;;;;1.60;1.50;;;17.90;69.50;;;;;;5065839;28;20526;-67
2023/10/21 01:59:45;;;;;;;2.95;1.70;;;17.90;69.40;;;;;;5063470;28;20028;-66
2023/10/21 02:02:11;;;;;;;1.85;1.55;;;17.90;69.30;;;;;;5065317;28;20445;-66
2023/10/21 02:07:59;;;;;;;1.55;1.45;;;17.90;69.30;;;;;;5057465;28;20078;-67
2023/10/21 02:10:25;;;;;;;2.20;1.40;;;17.90;69.30;;;;;;5064312;28;20036;-68
2023/10/21 02:12:50;;;;;;;1.80;1.45;;;17.90;69.30;;;;;;5063101;28;20522;-66
2023/10/21 02:15:16;;;;;;;1.55;1.45;;;17.90;69.30;;;;;;5064616;28;20123;-67
2023/10/21 02:17:42;;;;;;;1.65;1.55;;;17.90;69.30;;;;;;5065152;28;20543;-66
2023/10/21 02:20:10;;;;;;;2.03;1.75;;;17.90;69.40;;;;;;5067361;28;20119;-66
2023/10/21 02:22:36;;;;;;;1.70;1.52;;;17.90;69.40;;;;;;5065865;28;20671;-66
2023/10/21 02:25:01;;;;;;;1.88;1.70;;;17.90;69.40;;;;;;5067687;28;20036;-66
2023/10/21 02:27:28;;;;;;;2.53;1.70;;;17.90;69.30;;;;;;5064046;28;20491;-66
2023/10/21 02:29:53;;;;;;;1.80;1.55;;;17.90;69.40;;;;;;5063456;28;20036;-66
2023/10/21 02:32:19;;;;;;;1.80;1.70;;;17.90;69.40;;;;;;5063979;28;20426;-66
2023/10/21 02:34:44;;;;;;;1.75;1.50;;;17.90;69.40;;;;;;5061155;28;20044;-66
2023/10/21 02:37:11;;;;;;;1.98;1.77;;;17.90;69.40;;;;;;5066196;28;20028;-66
2023/10/21 02:39:37;;;;;;;1.52;1.40;;;18.00;69.40;;;;;;5066186;28;20078;-64
2023/10/21 02:42:03;;;;;;;2.00;1.60;;;17.90;69.30;;;;;;5066194;28;20020;-67
2023/10/21 02:44:29;;;;;;;1.98;1.58;;;17.90;69.40;;;;;;5058542;28;20418;-66
2023/10/21 02:46:54;;;;;;;2.05;1.83;;;17.90;69.50;;;;;;5061978;28;20040;-66
2023/10/21 02:49:20;;;;;;;1.83;1.60;;;17.90;69.30;;;;;;5059953;28;20036;-67
2023/10/21 02:51:45;;;;;;;1.80;1.70;;;17.90;69.40;;;;;;5064669;28;20031;-67
2023/10/21 02:54:11;;;;;;;2.35;1.10;;;17.90;69.50;;;;;;5063641;28;20445;-66
2023/10/21 02:56:41;;;;;;;1.60;1.50;;;17.90;69.40;;;;;;5065551;28;20086;-66
2023/10/21 02:59:07;;;;;;;1.52;1.42;;;17.90;69.40;;;;;;5059584;28;20487;-66
2023/10/21 03:01:33;;;;;;;1.85;1.50;;;17.90;69.50;;;;;;5063340;28;20047;-66
2023/10/21 03:03:58;;;;;;;1.85;1.58;;;18.00;69.40;;;;;;5066059;28;20037;-66
2023/10/21 03:06:24;;;;;;;1.88;1.33;;;18.00;69.50;;;;;;5064585;28;20047;-67
2023/10/21 03:08:50;;;;;;;2.00;1.50;;;17.90;69.30;;;;;;5082870;28;20071;-67
2023/10/21 03:11:16;;;;;;;1.60;1.27;;;17.90;69.40;;;;;;5083384;28;20024;-67
2023/10/21 03:13:41;;;;;;;2.65;1.77;;;18.00;69.40;;;;;;5085467;28;20025;-67
2023/10/21 03:16:09;;;;;;;2.65;1.58;;;18.00;69.40;;;;;;5085771;28;20017;-67
2023/10/21 03:18:36;;;;;;;2.33;1.40;;;17.90;69.30;;;;;;5069399;28;20032;-67
2023/10/21 03:21:03;;;;;;;1.33;1.23;;;17.90;69.50;;;;;;5067088;28;20067;-66
2023/10/21 03:23:29;;;;;;;1.95;1.58;;;17.90;69.40;;;;;;5064579;28;20044;-66
2023/10/21 03:25:55;;;;;;;2.13;1.60;;;17.90;69.50;;;;;;5065542;28;20466;-66
2023/10/21 03:28:22;;;;;;;1.42;1.33;;;17.90;69.50;;;;;;5063260;28;20032;-67
2023/10/21 03:30:48;;;;;;;1.38;1.27;;;17.90;69.50;;;;;;5060065;28;20039;-66
2023/10/21 03:33:13;;;;;;;2.00;1.25;;;17.90;69.40;;;;;;5061218;28;20042;-67
2023/10/21 03:35:39;;;;;;;1.23;1.10;;;18.00;69.50;;;;;;5063666;28;20058;-66
2023/10/21 03:38:05;;;;;;;1.50;1.40;;;17.90;69.50;;;;;;5065690;28;20544;-66
2023/10/21 03:40:30;;;;;;;1.23;1.13;;;17.90;69.40;;;;;;5064630;28;20033;-67
2023/10/21 03:42:56;;;;;;;1.95;1.83;;;18.00;69.40;;;;;;5066037;28;20526;-66
2023/10/21 03:45:21;;;;;;;1.55;1.40;;;17.90;69.40;;;;;;5063560;28;20024;-67
2023/10/21 03:47:47;;;;;;;1.60;1.50;;;18.00;69.50;;;;;;5063578;28;20532;-67
2023/10/21 03:50:13;;;;;;;1.30;1.15;;;17.90;69.40;;;;;;5064111;28;20112;-66
2023/10/21 03:52:39;;;;;;;2.17;1.90;;;17.90;69.50;;;;;;5065362;28;20037;-66
2023/10/21 03:55:05;;;;;;;1.55;1.38;;;17.90;69.40;;;;;;5065841;28;20032;-67
2023/10/21 03:57:31;;;;;;;1.50;1.40;;;17.90;69.30;;;;;;5060269;28;20028;-67
2023/10/21 03:59:59;;;;;;;1.23;1.13;;;18.00;69.40;;;;;;5062619;28;20403;-66
2023/10/21 04:02:25;;;;;;;1.95;1.20;;;17.90;69.50;;;;;;5061749;28;20040;-66
2023/10/21 04:04:50;;;;;;;1.15;1.05;;;18.00;69.30;;;;;;5055722;28;20029;-67
2023/10/21 04:07:16;;;;;;;1.42;1.30;;;18.00;69.40;;;;;;5061788;28;20055;-66
2023/10/21 04:09:41;;;;;;;2.38;1.30;;;17.90;69.30;;;;;;5060090;28;20559;-66
2023/10/21 04:12:07;;;;;;;1.40;1.30;;;18.00;69.40;;;;;;5062241;28;20050;-66
2023/10/21 04:14:33;;;;;;;1.15;1.08;;;17.90;69.40;;;;;;5061387;28;20028;-67
2023/10/21 04:16:59;;;;;;;1.30;1.20;;;18.00;69.40;;;;;;5064327;28;20546;-67
2023/10/21 04:19:25;;;;;;;3.63;1.88;;;18.00;69.40;;;;;;5063832;28;20047;-67
2023/10/21 04:21:50;;;;;;;1.52;1.30;;;17.90;69.30;;;;;;5067421;28;20033;-65
2023/10/21 04:24:16;;;;;;;1.70;1.05;;;17.90;69.30;;;;;;5062034;28;20322;-64
2023/10/21 04:26:41;;;;;;;1.15;1.05;;;18.00;69.40;;;;;;5057877;28;20108;-67
2023/10/21 04:29:08;;;;;;;1.40;1.30;;;18.00;69.40;;;;;;5061502;28;20040;-66
2023/10/21 04:31:38;;;;;;;1.63;1.42;;;18.00;69.40;;;;;;5057502;28;20036;-65
2023/10/21 04:34:04;;;;;;;1.60;1.50;;;17.90;69.30;;;;;;5063789;28;20423;-67
2023/10/21 04:36:29;;;;;;;1.20;1.10;;;17.90;69.40;;;;;;5060257;28;20035;-67
2023/10/21 04:38:55;;;;;;;1.13;1.02;;;17.90;69.30;;;;;;5063447;28;20119;-67
2023/10/21 04:41:21;;;;;;;1.40;1.30;;;18.00;69.40;;;;;;5062300;28;20029;-67
2023/10/21 04:43:47;;;;;;;1.20;1.10;;;18.00;69.30;;;;;;5062488;28;20039;-67
2023/10/21 04:46:12;;;;;;;1.30;1.20;;;18.00;69.30;;;;;;5064856;28;20038;-67
2023/10/21 04:48:38;;;;;;;1.45;1.35;;;18.00;69.30;;;;;;5064377;28;20049;-67
2023/10/21 04:51:03;;;;;;;1.45;1.08;;;18.00;69.30;;;;;;5064196;28;20029;-68
2023/10/21 04:53:30;;;;;;;1.10;1.00;;;18.00;69.40;;;;;;5064311;28;20662;-66
2023/10/21 04:55:55;;;;;;;1.27;1.13;;;18.00;69.40;;;;;;5063721;28;20020;-68
2023/10/21 04:58:21;;;;;;;1.10;1.00;;;18.00;69.30;;;;;;5060983;28;20082;-67
2023/10/21 05:00:46;;;;;;;1.60;1.30;;;18.00;69.30;;;;;;5055693;28;20081;-67
2023/10/21 05:03:12;;;;;;;1.38;1.23;;;17.90;69.30;;;;;;5056826;28;20136;-66
2023/10/21 05:05:37;;;;;;;1.30;1.20;;;18.00;69.40;;;;;;5058749;28;20032;-66
2023/10/21 05:08:03;;;;;;;1.58;1.10;;;18.00;69.40;;;;;;5063557;28;20503;-67
2023/10/21 05:10:29;;;;;;;1.20;1.10;;;17.90;69.30;;;;;;5064462;28;20039;-67
2023/10/21 05:12:55;;;;;;;1.65;1.02;;;17.90;69.30;;;;;;5065365;28;20123;-67
2023/10/21 05:15:20;;;;;;;1.63;1.15;;;18.00;70.00;;;;;;5063814;28;20029;-67
2023/10/21 05:17:46;;;;;;;1.15;1.05;;;17.90;69.30;;;;;;5066122;28;20040;-67
2023/10/21 05:20:11;;;;;;;1.30;1.20;;;17.90;69.30;;;;;;5071475;28;20043;-67
2023/10/21 05:22:37;;;;;;;2.78;1.02;;;17.90;69.20;;;;;;5062881;28;20623;-67
2023/10/21 05:25:03;;;;;;;1.25;1.10;;;18.00;69.30;;;;;;5066788;28;20032;-67
2023/10/21 05:27:29;;;;;;;0.88;0.82;;;17.90;69.30;;;;;;5062283;28;20402;-67
2023/10/21 05:29:55;;;;;;;1.67;1.20;;;18.00;69.40;;;;;;5063096;28;20029;-67
2023/10/21 05:32:20;;;;;;;1.45;1.30;;;18.00;69.40;;;;;;5066070;28;20484;-67
2023/10/21 05:34:46;;;;;;;1.40;1.30;;;17.90;69.20;;;;;;5063412;28;20495;-67
2023/10/21 05:37:11;;;;;;;1.98;1.00;;;18.00;69.40;;;;;;5065406;28;20688;-67
2023/10/21 05:39:37;;;;;;;0.93;0.90;;;18.00;69.30;;;;;;5063471;28;20482;-67
2023/10/21 05:42:03;;;;;;;1.10;1.00;;;17.90;69.30;;;;;;5067614;28;20036;-67
2023/10/21 05:44:29;;;;;;;1.25;0.75;;;18.00;69.30;;;;;;5069504;28;20055;-68
2023/10/21 05:46:54;;;;;;;2.83;1.20;;;18.00;69.30;;;;;;5068474;28;20522;-67
2023/10/21 05:49:21;;;;;;;2.15;1.10;;;18.00;69.40;;;;;;5071347;28;20040;-69
2023/10/21 05:51:47;;;;;;;1.27;1.13;;;17.90;69.30;;;;;;5066799;28;20024;-68
2023/10/21 05:54:13;;;;;;;0.70;0.70;;;18.00;69.30;;;;;;5067120;28;20031;-67
2023/10/21 05:56:38;;;;;;;1.10;1.00;;;18.00;69.20;;;;;;5065988;28;20041;-63
2023/10/21 05:59:04;;;;;;;1.00;0.90;;;18.00;69.40;;;;;;5063816;28;20031;-65
2023/10/21 06:01:30;;;;;;;1.13;0.90;;;18.00;69.90;;;;;;5064498;28;20032;-66
2023/10/21 06:03:56;;;;;;;0.90;0.88;;;18.00;69.30;;;;;;5060328;28;20036;-66
2023/10/21 06:06:22;;;;;;;0.80;0.80;;;17.90;69.30;;;;;;5068706;28;20028;-65
2023/10/21 06:08:48;;;;;;;0.88;0.88;;;18.00;69.30;;;;;;5061785;28;20032;-65
2023/10/21 06:11:13;;;;;;;1.38;1.10;;;18.00;69.30;;;;;;5059345;28;20038;-64
2023/10/21 06:13:39;;;;;;;1.20;0.98;;;18.00;69.20;;;;;;5063545;28;20425;-65
2023/10/21 06:16:05;;;;;;;1.20;1.00;;;17.90;69.30;;;;;;5067475;28;20023;-65
2023/10/21 06:18:31;;;;;;;2.42;1.65;;;18.00;69.30;;;;;;5067360;28;20029;-66
2023/10/21 06:20:56;;;;;;;0.80;0.80;;;18.00;69.30;;;;;;5063270;28;20040;-64
2023/10/21 06:23:22;;;;;;;1.15;1.05;;;18.00;69.20;;;;;;5059203;28;20117;-64
2023/10/21 06:25:47;;;;;;;1.75;1.00;;;18.00;69.30;;;;;;5065209;28;20491;-63
2023/10/21 06:28:14;;;;;;;1.40;1.10;;;18.00;69.20;;;;;;5066031;28;20035;-64
2023/10/21 06:30:43;;;;;;;1.20;1.08;;;18.00;69.10;;;;;;5057677;28;20098;-65
2023/10/21 06:33:09;;;;;;;4.20;1.58;;;18.00;69.20;;;;;;5063620;28;20025;-65
2023/10/21 06:35:36;;;;;;;3.25;1.40;;;18.00;69.20;;;;;;5067660;28;20029;-66
2023/10/21 06:38:02;;;;;;;1.95;0.80;;;18.00;69.20;;;;;;5066349;28;20756;-68
2023/10/21 06:40:27;;;;;;;3.17;1.17;;;18.00;69.20;;;;;;5063132;28;20051;-66
2023/10/21 06:42:53;;;;;;;2.60;1.30;;;18.00;69.20;;;;;;5069792;28;20394;-68
2023/10/21 06:45:18;;;;;;;1.15;1.08;;;18.00;69.20;;;;;;5068275;28;20032;-66
2023/10/21 06:47:44;;;;;;;2.83;1.10;;;18.00;69.20;;;;;;5062993;28;20028;-67
2023/10/21 06:50:11;;;;;;;2.50;1.05;;;18.00;69.20;;;;;;5058458;28;20479;-66
2023/10/21 06:52:36;;;;;;;2.42;1.05;;;18.00;69.20;;;;;;5062200;28;20119;-66
2023/10/21 06:55:02;;;;;;;2.33;1.20;;;18.00;69.80;;;;;;5059360;28;20112;-66
2023/10/21 06:57:28;;;;;;;1.23;1.10;;;18.00;69.20;;;;;;5059833;28;20078;-67
2023/10/21 06:59:53;;;;;;;1.63;1.30;;;18.00;69.10;;;;;;5060648;28;20124;-66
2023/10/21 07:02:19;;;;;;;2.45;1.27;;;18.00;69.10;;;;;;5062173;28;20039;-67
2023/10/21 07:04:44;;;;;;;3.08;1.17;;;18.00;69.20;;;;;;5060812;28;20040;-67
2023/10/21 07:07:10;;;;;;;1.73;0.98;;;18.00;69.10;;;;;;5067328;28;20040;-66
2023/10/21 07:09:37;;;;;;;3.58;1.35;;;18.00;69.10;;;;;;5060953;28;20034;-66
2023/10/21 07:12:03;;;;;;;3.83;1.60;;;18.00;69.10;;;;;;5056806;28;20068;-67
2023/10/21 07:14:29;;;;;;;1.33;1.23;;;18.00;69.10;;;;;;5062967;28;20122;-64
2023/10/21 07:16:55;;;;;;;3.10;1.45;;;18.00;69.10;;;;;;5066531;28;20053;-65
2023/10/21 07:19:21;;;;;;;2.78;1.23;;;18.00;69.10;;;;;;5062786;28;20036;-65
2023/10/21 07:21:48;;;;;;;4.78;1.55;;;18.00;69.20;;;;;;5061420;28;20028;-66
2023/10/21 07:24:14;;;;;;;2.95;1.70;;;18.00;69.20;;;;;;5060355;28;20665;-66
2023/10/21 07:26:39;;;;;;;2.17;1.60;;;18.10;69.20;;;;;;5063756;28;20396;-66
2023/10/21 07:29:07;;;;;;;2.72;1.70;;;18.00;69.10;;;;;;5061100;28;20429;-65
2023/10/21 07:31:33;;;;;;;3.17;1.92;;;18.10;69.20;;;;;;5062476;28;20032;-67
2023/10/21 07:33:59;;;;;;;5.13;2.17;;;18.10;69.20;;;;;;5067844;28;20513;-66
2023/10/21 07:36:25;;;;;;;5.10;2.17;;;18.10;69.20;;;;;;5047864;28;20068;-66
2023/10/21 07:38:50;;;;;;;4.82;2.00;;;18.10;69.20;;;;;;5064193;28;20028;-66
2023/10/21 07:41:16;;;;;;;6.57;2.97;;;18.10;69.20;;;;;;5066679;28;20043;-66
2023/10/21 07:43:42;;;;;;;6.70;2.33;;;18.10;69.30;;;;;;5067793;28;20501;-67
2023/10/21 07:46:07;;;;;;;4.35;2.38;;;18.10;69.20;;;;;;5064709;28;20447;-66
2023/10/21 07:48:33;;;;;;;4.75;2.45;;;18.10;69.20;;;;;;5061646;28;20406;-65
2023/10/21 07:50:59;;;;;;;2.90;2.17;;;18.10;69.20;;;;;;5060229;28;20086;-67
2023/10/21 07:53:24;;;;;;;4.43;2.55;;;18.10;69.20;;;;;;5059490;28;20537;-66
2023/10/21 07:55:50;;;;;;;5.70;2.42;;;18.10;69.20;;;;;;5057336;28;20031;-66
2023/10/21 07:58:16;;;;;;;3.47;2.38;;;18.10;69.30;;;;;;5062164;28;20418;-66
2023/10/21 08:00:42;;;;;;;4.93;2.35;;;18.10;69.20;;;;;;5055906;28;20036;-65
2023/10/21 08:03:08;;;;;;;6.65;2.40;;;18.10;69.20;;;;;;5064706;28;20116;-65
2023/10/21 08:05:33;;;;;;;3.05;2.30;;;18.10;69.20;;;;;;5063066;28;20127;-66
2023/10/21 08:07:59;;;;;;;7.55;2.10;;;18.10;69.10;;;;;;5063492;28;20104;-65
2023/10/21 08:10:24;;;;;;;4.03;2.00;;;18.00;69.00;;;;;;5057131;28;20043;-67
2023/10/21 08:12:50;;;;;;;5.25;1.83;;;18.10;69.00;;;;;;5068116;28;20458;-65
2023/10/21 08:15:15;;;;;;;4.13;1.70;;;18.10;69.00;;;;;;5063089;28;20028;-67
2023/10/21 08:17:41;;;;;;;3.45;1.83;;;18.10;69.00;;;;;;5060875;28;20044;-66
2023/10/21 08:20:08;;;;;;;4.53;2.10;;;18.10;69.00;;;;;;5059250;28;20032;-68
2023/10/21 08:22:34;;;;;;;5.47;1.85;;;18.10;68.90;;;;;;5059314;28;20044;-67
2023/10/21 08:25:00;;;;;;;4.38;1.85;;;18.10;69.00;;;;;;5058847;28;20033;-67
2023/10/21 08:27:26;;;;;;;4.40;1.63;;;18.10;68.90;;;;;;5054334;28;20422;-67
2023/10/21 08:29:53;;;;;;;3.40;1.67;;;18.10;68.90;;;;;;5058318;28;20044;-67
2023/10/21 08:32:18;;;;;;;5.55;1.98;;;18.10;68.90;;;;;;5063682;28;20490;-67
2023/10/21 08:34:44;;;;;;;3.20;1.70;;;18.10;68.90;;;;;;5062774;28;20114;-67
2023/10/21 08:37:09;;;;;;;4.18;1.90;;;18.10;68.90;;;;;;5062188;28;20083;-67
2023/10/21 08:39:35;;;;;;;3.92;1.67;;;18.10;68.80;;;;;;5064465;28;20034;-67
2023/10/21 08:42:02;;;;;;;2.60;1.40;;;18.10;68.80;;;;;;5062190;28;20036;-67
2023/10/21 08:44:30;;;;;;;2.50;1.25;;;18.10;68.90;;;;;;5064985;28;20163;-66
2023/10/21 08:46:57;;;;;;;4.65;1.73;;;18.10;68.80;;;;;;5062066;28;20399;-66
2023/10/21 08:49:24;;;;;;;1.98;1.40;;;18.10;68.80;;;;;;5061781;28;20037;-65
2023/10/21 08:51:52;;;;;;;6.40;1.33;;;18.10;68.80;;;;;;5056886;28;20032;-66
2023/10/21 08:54:18;;;;;;;2.53;1.52;;;18.10;68.90;;;;;;5060112;28;20051;-66
2023/10/21 08:56:44;;;;;;;1.85;1.10;;;18.10;68.80;;;;;;5059771;28;20183;-67
2023/10/21 08:59:09;;;;;;;2.08;1.40;;;18.10;68.80;;;;;;5061689;28;20048;-66
2023/10/21 09:01:36;;;;;;;4.10;1.58;;;18.10;68.80;;;;;;5062026;28;20033;-66
2023/10/21 09:04:03;;;;;;;1.90;1.00;;;18.10;68.80;;;;;;5058932;28;20046;-66
2023/10/21 09:06:29;;;;;;;2.08;0.98;;;18.10;68.70;;;;;;5058580;28;20059;-66
2023/10/21 09:08:54;;;;;;;1.73;1.10;;;18.10;68.80;;;;;;5061475;28;20040;-66
2023/10/21 09:11:24;;;;;;;2.60;1.25;;;18.10;68.80;;;;;;5060515;28;20114;-66
2023/10/21 09:13:52;;;;;;;1.42;0.95;;;18.10;68.80;;;;;;5056289;28;20057;-66
2023/10/21 09:16:20;;;;;;;1.73;1.10;;;18.10;68.80;;;;;;5062425;28;20483;-66
2023/10/21 09:19:10;;;;;;;1.33;1.00;;;18.10;68.70;;;;;;5056201;28;20586;-66
2023/10/21 09:21:41;;;;;;;1.70;1.02;;;18.10;68.80;;;;;;5056587;28;20024;-66
2023/10/21 09:24:09;;;;;;;2.40;1.58;;;18.10;68.80;;;;;;5060223;28;20033;-64
2023/10/21 09:26:40;;;;;;;1.40;0.85;;;18.10;68.80;;;;;;5060062;28;20025;-65
2023/10/21 09:29:12;;;;;;;2.45;1.40;;;18.20;68.80;;;;;;5060291;28;20082;-66
2023/10/21 09:31:46;;;;;;;1.63;1.05;;;18.10;68.70;;;;;;5062299;28;20040;-66
2023/10/21 09:34:24;;;;;;;2.40;0.98;;;18.10;68.70;;;;;;5059554;28;20111;-66
2023/10/21 09:36:51;;;;;;;1.20;1.00;;;18.20;68.80;;;;;;5062445;28;20054;-63
2023/10/21 09:39:16;;;;;;;1.45;0.80;;;18.20;68.80;;;;;;5067427;28;20028;-65
2023/10/21 09:41:44;;;;;;;1.40;0.88;;;18.20;68.80;;;;;;5058277;28;20039;-65
2023/10/21 09:44:13;;;;;;;1.08;0.75;;;18.20;68.80;;;;;;5032474;28;20082;-66
2023/10/21 09:46:40;;;;;;;1.40;0.80;;;18.20;68.80;;;;;;5059278;28;20051;-66
2023/10/21 09:49:06;;;;;;;1.17;0.70;;;18.20;68.80;;;;;;5056395;28;20055;-66
2023/10/21 09:51:36;;;;;;;2.30;1.00;;;18.20;68.70;;;;;;5059039;28;20490;-66
2023/10/21 09:54:10;;;;;;;2.25;0.80;;;18.20;68.70;;;;;;5058805;28;22603;-67
2023/10/21 09:56:37;;;;;;;2.90;1.17;;;18.20;68.80;;;;;;5063555;28;20063;-67
2023/10/21 09:59:05;;;;;;;1.85;0.90;;;18.20;68.70;;;;;;5064979;28;20040;-67
2023/10/21 10:01:31;;;;;;;1.05;0.90;;;18.20;68.80;;;;;;5067142;28;20027;-67
2023/10/21 10:04:00;;;;;;;1.25;0.98;;;18.20;68.70;;;;;;5062271;28;21068;-65
2023/10/21 10:06:26;;;;;;;1.33;0.80;;;18.20;68.80;;;;;;5054493;28;20033;-63
2023/10/21 10:08:52;;;;;;;1.35;0.70;;;18.20;68.70;;;;;;5059518;28;20040;-61
2023/10/21 10:11:20;;;;;;;2.47;0.70;;;18.20;68.80;;;;;;5063292;28;20028;-67
2023/10/21 10:13:48;;;;;;;0.77;0.65;;;18.20;68.80;;;;;;5063530;28;20406;-66
2023/10/21 10:16:24;;;;;;;1.08;0.70;;;18.20;68.70;;;;;;5064392;28;20553;-64
2023/10/21 10:18:51;;;;;;;1.23;0.77;;;18.20;68.80;;;;;;5061871;28;20021;-65
2023/10/21 10:21:18;;;;;;;1.40;0.77;;;18.20;68.70;;;;;;5061343;28;20020;-65
2023/10/21 10:23:51;;;;;;;1.98;0.70;;;18.20;68.80;;;;;;5062624;28;20028;-67
2023/10/21 10:26:34;;;;;;;1.10;0.73;;;18.20;68.70;;;;;;5065305;28;20032;-67
2023/10/21 10:29:17;;;;;;;1.58;0.68;;;18.20;68.70;;;;;;5063687;28;20395;-62
2023/10/21 10:31:44;;;;;;;1.77;1.05;;;18.20;68.70;;;;;;5060439;28;20031;-65
2023/10/21 10:34:10;;;;;;;1.35;0.50;;;18.20;68.70;;;;;;5063536;28;20021;-66
2023/10/21 10:36:36;;;;;;;1.42;0.63;;;18.20;68.80;;;;;;5060589;28;20423;-67
2023/10/21 10:39:04;;;;;;;1.00;0.60;;;18.20;68.70;;;;;;5058935;28;20628;-67
2023/10/21 10:41:29;;;;;;;2.60;0.70;;;18.20;68.80;;;;;;5061748;28;20043;-67
2023/10/21 10:44:02;;;;;;;0.80;0.60;;;18.20;68.70;;;;;;5061937;28;20399;-65
2023/10/21 10:46:29;;;;;;;0.70;0.57;;;18.20;68.70;;;;;;5063459;28;20031;-67
2023/10/21 10:48:57;;;;;;;1.13;0.60;;;18.20;68.70;;;;;;5058286;28;20029;-67
2023/10/21 10:51:23;;;;;;;0.32;0.32;;;18.20;68.70;;;;;;5062055;28;20028;-67
2023/10/21 10:54:00;;;;;;;1.63;0.50;;;18.20;68.70;;;;;;5055258;28;20024;-64
2023/10/21 10:56:39;;;;;;;0.90;0.50;;;18.20;68.70;;;;;;5057419;28;20040;-67
2023/10/21 10:59:04;;;;;;;0.82;0.60;;;18.20;68.80;;;;;;5061866;28;20040;-67
2023/10/21 11:01:30;;;;;;;0.73;0.45;;;18.20;68.70;;;;;;5063920;28;20059;-67
2023/10/21 11:04:01;;;;;;;0.95;0.70;;;18.20;68.70;;;;;;5060296;28;20044;-63
2023/10/21 11:06:31;;;;;;;1.15;0.63;;;18.20;68.70;;;;;;5062089;28;20064;-66
2023/10/21 11:08:58;;;;;;;0.60;0.45;;;18.20;68.60;;;;;;5059331;28;20029;-67
2023/10/21 11:11:24;;;;;;;0.65;0.50;;;18.20;68.70;;;;;;5064106;28;20039;-62
2023/10/21 11:13:49;;;;;;;0.60;0.40;;;18.20;68.60;;;;;;5060807;28;20107;-64
2023/10/21 11:16:15;;;;;;;1.08;0.70;;;18.20;68.60;;;;;;5062197;28;20029;-66
2023/10/21 11:18:41;;;;;;;2.13;0.77;;;18.20;68.70;;;;;;5060986;28;20029;-66
2023/10/21 11:21:08;;;;;;;0.77;0.60;;;18.20;68.70;;;;;;5062394;28;20031;-67
2023/10/21 11:23:35;;;;;;;0.70;0.50;;;18.20;68.70;;;;;;5064616;28;20082;-67
2023/10/21 11:26:01;;;;;;;1.25;0.73;;;18.20;68.70;;;;;;5061076;28;20053;-67
2023/10/21 11:28:29;;;;;;;0.63;0.50;;;18.20;68.70;;;;;;5061704;28;20035;-66
2023/10/21 11:30:55;;;;;;;1.05;0.60;;;18.20;68.70;;;;;;5059665;28;20078;-65
2023/10/21 11:33:21;;;;;;;0.77;0.40;;;18.20;68.70;;;;;;5058476;28;20173;-66
2023/10/21 11:35:48;;;;;;;0.80;0.57;;;18.20;68.70;;;;;;5064062;28;20117;-66
2023/10/21 11:38:18;;;;;;;0.47;0.40;;;18.20;68.60;;;;;;5068067;28;20127;-66
2023/10/21 11:40:45;;;;;;;0.40;0.30;;;18.20;68.70;;;;;;5050440;28;20074;-65
2023/10/21 11:43:16;;;;;;;1.67;0.50;;;18.20;68.70;;;;;;5061342;28;20441;-65
2023/10/21 11:45:42;;;;;;;1.27;0.32;;;18.30;68.70;;;;;;5057620;28;20131;-65
2023/10/21 11:48:11;;;;;;;0.98;0.40;;;18.20;68.60;;;;;;5061224;28;20120;-62
2023/10/21 11:50:42;;;;;;;0.45;0.40;;;18.20;68.60;;;;;;5059577;28;20066;-66
2023/10/21 11:53:08;;;;;;;0.90;0.40;;;18.20;68.60;;;;;;5060657;28;20123;-66
2023/10/21 12:04:23;;;;;;;0.55;0.38;;;18.30;68.60;;;;;;5057833;28;20683;-61
2023/10/21 12:12:13;;;;;;;0.45;0.40;;;18.30;68.60;;;;;;5050354;28;20114;-65
2023/10/21 12:26:17;;;;;;;0.60;0.40;;;18.30;68.70;;;;;;5061467;28;20119;-66
2023/10/21 12:36:42;;;;;;;;;;;18.30;68.60;;;;;;5015071;28;20040;-66
2023/10/21 12:41:42;;;;;;;1.55;0.47;;;18.30;68.60;;;;;;5053776;28;20118;-66
2023/10/21 12:44:19;;;;;;;0.95;0.40;;;18.30;68.60;;;;;;5055563;28;20033;-66
2023/10/21 12:46:47;;;;;;;0.50;0.30;;;18.30;68.60;;;;;;5052766;28;20037;-67
2023/10/21 12:49:16;;;;;;;0.22;0.22;;;18.30;68.60;;;;;;5051217;28;20128;-61
2023/10/21 12:51:41;;;;;;;0.88;0.50;;;18.30;68.60;;;;;;5055181;28;20025;-66
2023/10/21 12:54:10;;;;;;;0.57;0.47;;;18.30;68.60;;;;;;5065129;28;20078;-66
2023/10/21 12:56:37;;;;;;;0.43;0.40;;;18.30;68.60;;;;;;5060759;28;20044;-66
2023/10/21 12:59:02;;;;;;;0.30;0.30;;;18.30;68.60;;;;;;5059629;28;20028;-64
2023/10/21 13:01:29;;;;;;;0.47;0.30;;;18.30;68.60;;;;;;5055406;28;20604;-66
2023/10/21 13:03:57;;;;;;;0.35;0.30;;;18.30;68.70;;;;;;5057623;28;20683;-65
2023/10/21 13:06:22;;;;;;;1.08;0.50;;;18.30;68.60;;;;;;5053864;28;20554;-65
2023/10/21 13:08:50;;;;;;;0.45;0.20;;;18.30;68.60;;;;;;5057053;28;20032;-66
2023/10/21 13:11:17;;;;;;;0.30;0.20;;;18.30;68.70;;;;;;5055627;28;20490;-66
2023/10/21 13:13:43;;;;;;;1.42;0.47;;;18.30;68.70;;;;;;5055981;28;20025;-65
2023/10/21 13:16:09;;;;;;;0.57;0.20;;;18.30;68.60;;;;;;5060207;28;20040;-66
2023/10/21 13:18:35;;;;;;;0.40;0.40;;;18.30;68.60;;;;;;5057983;28;20029;-66
2023/10/21 13:21:01;;;;;;;0.93;0.38;;;18.30;68.60;;;;;;5058252;28;20024;-66
2023/10/21 13:23:27;;;;;;;0.30;0.30;;;18.30;68.60;;;;;;5059772;28;20698;-66
2023/10/21 13:25:53;;;;;;;0.35;0.32;;;18.30;68.60;;;;;;5057596;28;20498;-63